createdAt,value
2023-02-22T00:01:51.271Z,7.90
2023-02-22T00:04:21.417Z,7.33
2023-02-22T00:06:50.849Z,7.10
2023-02-22T00:09:21.522Z,7.17
2023-02-22T00:11:51.275Z,8.73
2023-02-22T00:14:21.440Z,3.87
2023-02-22T00:16:50.669Z,6.57
2023-02-22T00:19:19.077Z,6.37
2023-02-22T00:21:52.959Z,8.27
2023-02-22T00:24:24.017Z,5.63
2023-02-22T00:26:56.585Z,8.77
2023-02-22T00:29:26.160Z,6.03
2023-02-22T00:31:55.003Z,8.07
2023-02-22T00:34:24.497Z,9.53
2023-02-22T00:36:52.870Z,7.07
2023-02-22T00:39:21.387Z,7.20
2023-02-22T00:41:49.838Z,8.33
2023-02-22T00:44:19.697Z,8.87
2023-02-22T00:46:48.190Z,6.60
2023-02-22T00:49:16.955Z,5.63
2023-02-22T00:51:45.339Z,5.30
2023-02-22T00:54:14.443Z,8.80
2023-02-22T00:56:42.807Z,8.07
2023-02-22T00:59:11.190Z,5.37
2023-02-22T01:01:41.108Z,5.67
2023-02-22T01:04:09.582Z,8.10
2023-02-22T01:06:38.226Z,6.03
2023-02-22T01:09:07.798Z,10.07
2023-02-22T01:11:36.185Z,10.30
2023-02-22T01:14:04.625Z,7.20
2023-02-22T01:16:33.346Z,8.50
2023-02-22T01:19:03.152Z,7.90
2023-02-22T01:21:31.494Z,9.87
2023-02-22T01:23:59.885Z,8.93
2023-02-22T01:26:28.227Z,8.90
2023-02-22T01:28:56.941Z,6.80
2023-02-22T01:31:25.473Z,9.97
2023-02-22T01:33:53.863Z,7.90
2023-02-22T01:36:23.782Z,9.67
2023-02-22T01:38:52.120Z,11.60
2023-02-22T01:41:20.786Z,7.00
2023-02-22T01:43:49.267Z,9.93
2023-02-22T01:46:24.719Z,5.87
2023-02-22T01:48:58.572Z,11.10
2023-02-22T01:51:32.080Z,10.20
2023-02-22T01:54:07.278Z,7.17
2023-02-22T01:56:40.773Z,10.03
2023-02-22T01:59:13.979Z,9.10
2023-02-22T02:01:44.762Z,7.40
2023-02-22T02:04:17.331Z,8.07
2023-02-22T02:06:48.227Z,11.10
2023-02-22T02:09:26.043Z,11.37
2023-02-22T02:11:55.113Z,8.80
2023-02-22T02:14:23.727Z,11.30
2023-02-22T02:16:56.253Z,11.13
2023-02-22T02:19:38.187Z,7.30
2023-02-22T02:22:31.912Z,7.23
2023-02-22T02:25:41.524Z,8.23
2023-02-22T02:28:43.621Z,3.87
2023-02-22T02:32:12.377Z,6.80
2023-02-22T02:34:51.209Z,5.87
2023-02-22T02:37:33.276Z,6.40
2023-02-22T02:40:18.705Z,7.37
2023-02-22T02:42:57.402Z,7.63
2023-02-22T02:45:33.205Z,7.63
2023-02-22T02:48:04.824Z,5.73
2023-02-22T02:50:41.675Z,8.70
2023-02-22T02:53:11.307Z,5.33
2023-02-22T02:55:39.875Z,7.67
2023-02-22T02:58:09.656Z,11.20
2023-02-22T03:00:42.208Z,7.53
2023-02-22T03:03:47.771Z,7.37
2023-02-22T03:07:04.138Z,10.20
2023-02-22T03:09:54.799Z,8.20
2023-02-22T03:12:44.806Z,7.13
2023-02-22T03:15:28.480Z,6.67
2023-02-22T03:18:07.342Z,7.23
2023-02-22T03:20:46.410Z,8.50
2023-02-22T03:23:25.895Z,7.77
2023-02-22T03:26:02.515Z,7.10
2023-02-22T03:28:33.806Z,7.97
2023-02-22T03:31:07.146Z,10.37
2023-02-22T03:33:40.692Z,7.50
2023-02-22T03:36:17.227Z,5.53
2023-02-22T03:38:48.670Z,6.20
2023-02-22T03:41:24.103Z,5.90
2023-02-22T03:43:57.242Z,5.27
2023-02-22T03:46:26.976Z,3.40
2023-02-22T03:49:01.208Z,5.03
2023-02-22T03:51:29.980Z,4.93
2023-02-22T03:54:00.343Z,6.07
2023-02-22T03:56:35.933Z,7.80
2023-02-22T03:59:06.481Z,3.03
2023-02-22T04:01:35.746Z,5.23
2023-02-22T04:04:04.413Z,5.87
2023-02-22T04:06:33.339Z,3.90
2023-02-22T04:09:03.657Z,5.17
2023-02-22T04:11:32.363Z,7.07
2023-02-22T04:14:01.291Z,3.47
2023-02-22T04:16:30.282Z,4.53
2023-02-22T04:18:58.944Z,5.17
2023-02-22T04:21:27.358Z,3.63
2023-02-22T04:23:55.744Z,2.30
2023-02-22T04:26:25.706Z,4.20
2023-02-22T04:28:54.242Z,5.93
2023-02-22T04:31:22.659Z,3.40
2023-02-22T04:33:51.061Z,3.83
2023-02-22T04:36:19.612Z,1.73
2023-02-22T04:38:47.989Z,2.33
2023-02-22T04:41:18.489Z,1.87
2023-02-22T04:43:48.489Z,3.53
2023-02-22T04:46:17.610Z,1.57
2023-02-22T04:48:46.078Z,2.10
2023-02-22T04:51:14.524Z,1.37
2023-02-22T04:53:42.940Z,1.47
2023-02-22T04:56:11.364Z,2.30
2023-02-22T04:58:39.773Z,2.50
2023-02-22T05:01:09.520Z,1.10
2023-02-22T05:03:39.414Z,1.20
2023-02-22T05:06:08.592Z,1.73
2023-02-22T05:08:37.179Z,1.87
2023-02-22T05:11:06.256Z,1.80
2023-02-22T05:13:34.638Z,2.20
2023-02-22T05:16:03.985Z,3.63
2023-02-22T05:18:33.790Z,2.03
2023-02-22T05:21:02.142Z,2.03
2023-02-22T05:23:30.555Z,1.20
2023-02-22T05:25:58.998Z,2.20
2023-02-22T05:28:27.536Z,1.40
2023-02-22T05:30:55.929Z,3.43
2023-02-22T05:33:24.345Z,2.30
2023-02-22T05:35:56.096Z,1.63
2023-02-22T05:38:24.474Z,2.63
2023-02-22T05:40:52.877Z,2.67
2023-02-22T05:43:21.328Z,2.17
2023-02-22T05:48:18.106Z,1.30
2023-02-22T05:50:46.472Z,2.37
2023-02-22T05:53:16.161Z,1.40
2023-02-22T05:55:46.415Z,1.70
2023-02-22T05:58:15.644Z,2.27
2023-02-22T06:00:47.392Z,1.73
2023-02-22T06:03:21.479Z,2.17
2023-02-22T06:05:50.039Z,2.87
2023-02-22T06:08:20.015Z,2.33
2023-02-22T06:10:48.718Z,2.93
2023-02-22T06:13:18.743Z,2.00
2023-02-22T06:15:47.628Z,4.83
2023-02-22T06:18:16.407Z,3.57
2023-02-22T06:20:44.809Z,2.20
2023-02-22T06:23:13.287Z,2.53
2023-02-22T06:25:43.011Z,4.87
2023-02-22T06:28:11.574Z,1.83
2023-02-22T06:30:43.154Z,2.90
2023-02-22T06:33:12.451Z,3.47
2023-02-22T06:35:40.852Z,1.63
2023-02-22T06:38:09.245Z,2.50
2023-02-22T06:40:37.832Z,5.60
2023-02-22T06:43:07.641Z,2.33
2023-02-22T06:45:36.015Z,2.73
2023-02-22T06:48:04.632Z,2.43
2023-02-22T06:50:35.869Z,2.63
2023-02-22T06:53:04.776Z,2.50
2023-02-22T06:55:35.534Z,2.73
2023-02-22T06:58:07.023Z,1.80
2023-02-22T07:00:35.639Z,3.93
2023-02-22T07:03:06.195Z,3.77
2023-02-22T07:05:34.735Z,4.57
2023-02-22T07:08:07.489Z,1.67
2023-02-22T07:10:38.122Z,2.07
2023-02-22T07:13:09.135Z,2.47
2023-02-22T07:15:37.668Z,3.30
2023-02-22T07:18:07.598Z,4.47
2023-02-22T07:20:36.570Z,2.03
2023-02-22T07:23:05.479Z,3.73
2023-02-22T07:25:34.010Z,3.77
2023-02-22T07:28:02.469Z,3.47
2023-02-22T07:30:34.384Z,2.90
2023-02-22T07:33:04.764Z,2.37
2023-02-22T07:35:37.048Z,1.97
2023-02-22T07:38:08.144Z,1.40
2023-02-22T07:40:37.581Z,1.70
2023-02-22T07:43:15.441Z,3.60
2023-02-22T07:45:46.187Z,1.63
2023-02-22T07:48:17.610Z,2.20
2023-02-22T07:50:46.991Z,1.80
2023-02-22T07:53:19.399Z,1.90
2023-02-22T07:55:50.938Z,1.43
2023-02-22T07:58:21.692Z,2.00
2023-02-22T08:00:51.801Z,3.43
2023-02-22T08:03:24.124Z,1.57
2023-02-22T08:05:55.842Z,1.80
2023-02-22T08:08:24.931Z,1.53
2023-02-22T08:10:54.078Z,2.53
2023-02-22T08:13:23.481Z,2.67
2023-02-22T08:15:56.205Z,1.63
2023-02-22T08:18:26.609Z,2.73
2023-02-22T08:20:56.587Z,1.43
2023-02-22T08:23:27.399Z,4.77
2023-02-22T08:25:56.645Z,4.10
2023-02-22T08:28:26.333Z,1.77
2023-02-22T08:30:56.456Z,2.47
2023-02-22T08:33:25.090Z,1.83
2023-02-22T08:35:53.817Z,2.80
2023-02-22T08:38:25.461Z,2.60
2023-02-22T08:40:54.171Z,1.80
2023-02-22T08:43:23.829Z,3.17
2023-02-22T08:45:53.559Z,2.87
2023-02-22T08:48:24.283Z,2.13
2023-02-22T08:50:53.966Z,2.80
2023-02-22T08:53:22.726Z,2.47
2023-02-22T08:55:51.408Z,2.40
2023-02-22T08:58:21.195Z,3.30
2023-02-22T09:00:49.696Z,2.23
2023-02-22T09:03:18.220Z,1.70
2023-02-22T09:05:48.274Z,2.53
2023-02-22T09:08:18.400Z,4.20
2023-02-22T09:10:47.065Z,3.17
2023-02-22T09:13:15.431Z,2.33
2023-02-22T09:15:43.988Z,3.00
2023-02-22T09:18:18.173Z,2.97
2023-02-22T09:20:48.077Z,2.87
2023-02-22T09:23:16.638Z,2.90
2023-02-22T09:25:45.134Z,2.50
2023-02-22T09:28:13.830Z,2.00
2023-02-22T09:30:43.262Z,2.93
2023-02-22T09:33:14.879Z,2.73
2023-02-22T09:35:46.506Z,2.60
2023-02-22T09:38:19.879Z,2.50
2023-02-22T09:40:52.009Z,2.20
2023-02-22T09:43:33.830Z,2.83
2023-02-22T09:46:24.430Z,3.30
2023-02-22T09:49:06.507Z,2.80
2023-02-22T09:51:42.446Z,2.80
2023-02-22T09:54:22.612Z,2.33
2023-02-22T09:56:57.737Z,2.37
2023-02-22T09:59:32.149Z,2.80
2023-02-22T10:02:15.374Z,2.43
2023-02-22T10:04:50.535Z,2.67
2023-02-22T10:07:29.620Z,2.53
2023-02-22T10:10:06.656Z,2.77
2023-02-22T10:12:45.441Z,2.40
2023-02-22T10:15:52.885Z,2.90
2023-02-22T10:18:51.461Z,3.10
2023-02-22T10:21:43.911Z,4.60
2023-02-22T10:24:27.188Z,5.87
2023-02-22T10:26:59.729Z,4.67
2023-02-22T10:29:39.750Z,4.13
2023-02-22T10:32:22.995Z,6.03
2023-02-22T10:34:54.168Z,4.03
2023-02-22T10:37:28.095Z,4.93
2023-02-22T10:40:06.359Z,5.37
2023-02-22T10:42:36.242Z,3.57
2023-02-22T10:45:05.110Z,5.37
2023-02-22T10:47:34.980Z,3.97
2023-02-22T10:50:04.813Z,4.17
2023-02-22T10:52:35.839Z,3.97
2023-02-22T10:55:15.564Z,4.40
2023-02-22T10:57:50.207Z,4.90
2023-02-22T11:00:26.444Z,4.60
2023-02-22T11:02:58.362Z,5.40
2023-02-22T11:05:36.785Z,5.10
2023-02-22T11:08:29.477Z,7.07
2023-02-22T11:11:02.414Z,6.13
2023-02-22T11:13:35.178Z,5.83
2023-02-22T11:16:20.072Z,4.87
2023-02-22T11:18:49.420Z,4.83
2023-02-22T11:21:25.578Z,4.53
2023-02-22T11:24:04.148Z,4.93
2023-02-22T11:26:42.736Z,4.57
2023-02-22T11:29:23.905Z,6.03
2023-02-22T11:31:53.373Z,4.70
2023-02-22T11:34:36.501Z,6.20
2023-02-22T11:37:32.658Z,7.20
2023-02-22T11:40:17.855Z,7.33
2023-02-22T11:42:47.198Z,4.83
2023-02-22T11:45:21.444Z,5.30
2023-02-22T11:47:53.776Z,5.63
2023-02-22T11:50:35.178Z,6.13
2023-02-22T11:53:27.824Z,5.57
2023-02-22T11:56:16.146Z,8.77
2023-02-22T11:58:51.054Z,4.87
2023-02-22T12:01:32.788Z,7.23
2023-02-22T12:04:51.593Z,3.67
2023-02-22T12:07:38.250Z,5.23
2023-02-22T12:10:21.247Z,4.87
2023-02-22T12:13:12.131Z,4.27
2023-02-22T12:15:48.561Z,4.40
2023-02-22T12:18:30.035Z,4.67
2023-02-22T12:21:02.491Z,5.50
2023-02-22T12:23:41.679Z,4.40
2023-02-22T12:26:17.248Z,3.47
2023-02-22T12:28:53.150Z,5.17
2023-02-22T12:31:29.689Z,3.43
2023-02-22T12:34:09.529Z,3.90
2023-02-22T12:36:46.722Z,3.33
2023-02-22T12:39:51.804Z,5.17
2023-02-22T12:42:31.624Z,3.93
2023-02-22T12:45:11.082Z,3.57
2023-02-22T12:47:49.182Z,3.47
2023-02-22T12:50:23.492Z,4.53
2023-02-22T12:52:58.931Z,4.83
2023-02-22T12:55:34.280Z,3.27
2023-02-22T12:58:15.118Z,2.83
2023-02-22T13:00:49.692Z,3.00
2023-02-22T13:03:36.224Z,2.67
2023-02-22T13:06:31.550Z,3.80
2023-02-22T13:09:15.924Z,5.10
2023-02-22T13:11:51.644Z,4.13
2023-02-22T13:14:43.807Z,3.37
2023-02-22T13:17:22.332Z,3.13
2023-02-22T13:19:58.490Z,3.70
2023-02-22T13:22:35.886Z,3.77
2023-02-22T13:25:11.852Z,3.47
2023-02-22T13:27:49.748Z,4.00
2023-02-22T13:30:23.305Z,4.37
2023-02-22T13:33:31.246Z,3.83
2023-02-22T13:36:23.763Z,4.13
2023-02-22T13:39:54.706Z,4.30
2023-02-22T13:43:02.408Z,3.30
2023-02-22T13:46:19.342Z,5.10
2023-02-22T13:49:19.019Z,3.87
2023-02-22T13:51:52.746Z,5.17
2023-02-22T13:54:30.047Z,3.60
2023-02-22T13:56:58.930Z,4.40
2023-02-22T13:59:36.158Z,3.00
2023-02-22T14:02:08.072Z,3.53
2023-02-22T14:04:42.037Z,3.53
2023-02-22T14:07:57.064Z,2.90
2023-02-22T14:10:51.163Z,4.37
2023-02-22T14:13:22.644Z,5.03
2023-02-22T14:16:22.549Z,3.30
2023-02-22T14:19:02.362Z,2.57
2023-02-22T14:21:30.874Z,4.30
2023-02-22T14:24:10.888Z,2.60
2023-02-22T14:26:42.770Z,2.97
2023-02-22T14:29:21.383Z,4.17
2023-02-22T14:32:07.383Z,4.80
2023-02-22T14:34:48.810Z,4.97
2023-02-22T14:37:22.024Z,3.33
2023-02-22T14:39:55.047Z,2.93
2023-02-22T14:42:34.366Z,2.83
2023-02-22T14:45:18.273Z,3.40
2023-02-22T14:48:01.199Z,5.03
2023-02-22T14:50:44.191Z,3.30
2023-02-22T14:53:25.605Z,3.13
2023-02-22T14:56:02.616Z,3.40
2023-02-22T14:58:45.260Z,3.30
2023-02-22T15:01:44.359Z,3.43
2023-02-22T15:04:23.643Z,3.70
2023-02-22T15:06:53.289Z,3.90
2023-02-22T15:09:27.699Z,3.57
2023-02-22T15:12:14.382Z,2.73
2023-02-22T15:14:47.718Z,3.20
2023-02-22T15:17:24.965Z,2.10
2023-02-22T15:19:55.104Z,3.80
2023-02-22T15:22:26.275Z,3.10
2023-02-22T15:25:02.352Z,2.47
2023-02-22T15:27:36.835Z,3.90
2023-02-22T15:30:27.718Z,3.87
2023-02-22T15:33:04.504Z,5.67
2023-02-22T15:35:34.818Z,3.50
2023-02-22T15:38:06.226Z,4.87
2023-02-22T15:40:35.936Z,2.67
2023-02-22T15:43:08.979Z,2.97
2023-02-22T15:45:43.205Z,4.10
2023-02-22T15:48:13.104Z,3.37
2023-02-22T15:50:59.113Z,3.53
2023-02-22T15:53:31.844Z,6.00
2023-02-22T15:56:04.703Z,5.53
2023-02-22T15:58:33.326Z,4.83
2023-02-22T16:01:07.622Z,4.93
2023-02-22T16:03:44.889Z,3.23
2023-02-22T16:06:19.980Z,3.97
2023-02-22T16:08:55.476Z,4.60
2023-02-22T16:11:31.146Z,2.87
2023-02-22T16:14:04.990Z,5.17
2023-02-22T16:16:41.616Z,6.00
2023-02-22T16:19:40.744Z,4.33
2023-02-22T16:22:28.516Z,5.27
2023-02-22T16:25:16.424Z,7.13
2023-02-22T16:27:48.412Z,6.33
2023-02-22T16:30:30.028Z,4.90
2023-02-22T16:33:00.831Z,5.30
2023-02-22T16:35:30.385Z,5.40
2023-02-22T16:38:02.284Z,6.30
2023-02-22T16:40:35.661Z,6.97
2023-02-22T16:43:08.038Z,4.77
2023-02-22T16:45:37.041Z,5.07
2023-02-22T16:48:22.639Z,4.03
2023-02-22T16:50:53.107Z,5.10
2023-02-22T16:53:24.487Z,4.43
2023-02-22T16:55:59.016Z,6.13
2023-02-22T16:58:28.711Z,5.97
2023-02-22T17:00:58.363Z,5.40
2023-02-22T17:03:28.384Z,5.87
2023-02-22T17:05:57.001Z,6.60
2023-02-22T17:08:25.565Z,9.57
2023-02-22T17:10:56.782Z,5.40
2023-02-22T17:13:28.108Z,4.50
2023-02-22T17:15:57.152Z,5.17
2023-02-22T17:18:30.366Z,6.63
2023-02-22T17:20:58.802Z,5.57
2023-02-22T17:23:27.851Z,5.57
2023-02-22T17:25:59.209Z,5.53
2023-02-22T17:28:28.211Z,5.33
2023-02-22T17:31:01.701Z,7.17
2023-02-22T17:33:34.993Z,7.20
2023-02-22T17:36:05.624Z,6.47
2023-02-22T17:38:34.853Z,7.17
2023-02-22T17:41:03.756Z,6.23
2023-02-22T17:43:32.119Z,5.57
2023-02-22T17:46:00.710Z,7.03
2023-02-22T17:48:29.261Z,5.13
2023-02-22T17:50:59.454Z,7.20
2023-02-22T17:53:27.816Z,7.57
2023-02-22T17:55:58.204Z,9.73
2023-02-22T17:58:30.951Z,5.87
2023-02-22T18:00:59.725Z,5.90
2023-02-22T18:03:28.979Z,8.87
2023-02-22T18:06:01.657Z,5.73
2023-02-22T18:08:32.333Z,5.70
2023-02-22T18:11:05.421Z,6.73
2023-02-22T18:13:33.901Z,5.57
2023-02-22T18:16:05.063Z,6.27
2023-02-22T18:18:34.511Z,7.00
2023-02-22T18:21:06.508Z,6.20
2023-02-22T18:23:35.104Z,5.90
2023-02-22T18:26:11.441Z,5.10
2023-02-22T18:28:41.156Z,7.50
2023-02-22T18:31:13.578Z,5.13
2023-02-22T18:33:42.907Z,6.07
2023-02-22T18:36:14.288Z,6.47
2023-02-22T18:38:44.596Z,8.17
2023-02-22T18:41:17.633Z,15.47
2023-02-22T18:43:47.511Z,6.83
2023-02-22T18:46:18.950Z,7.47
2023-02-22T18:48:49.140Z,7.27
2023-02-22T18:51:19.211Z,6.27
2023-02-22T18:53:49.910Z,4.80
2023-02-22T18:56:22.229Z,6.37
2023-02-22T18:58:54.457Z,7.73
2023-02-22T19:01:23.650Z,6.60
2023-02-22T19:03:52.948Z,7.40
2023-02-22T19:06:25.021Z,8.47
2023-02-22T19:08:53.557Z,7.63
2023-02-22T19:11:25.712Z,7.87
2023-02-22T19:13:57.238Z,6.97
2023-02-22T19:16:28.239Z,6.47
2023-02-22T19:18:58.153Z,6.23
2023-02-22T19:21:32.504Z,8.17
2023-02-22T19:24:00.936Z,7.03
2023-02-22T19:26:30.219Z,7.33
2023-02-22T19:29:04.713Z,13.20
2023-02-22T19:31:34.670Z,5.60
2023-02-22T19:34:08.889Z,7.07
2023-02-22T19:36:41.122Z,7.10
2023-02-22T19:39:10.197Z,6.90
2023-02-22T19:41:38.798Z,7.07
2023-02-22T19:44:09.053Z,4.53
2023-02-22T19:46:38.330Z,6.27
2023-02-22T19:49:08.724Z,7.13
2023-02-22T19:51:38.652Z,8.10
2023-02-22T19:54:12.786Z,5.33
2023-02-22T19:56:41.303Z,6.80
2023-02-22T19:59:13.677Z,5.67
2023-02-22T20:01:44.800Z,5.83
2023-02-22T20:04:18.207Z,4.40
2023-02-22T20:06:50.628Z,5.23
2023-02-22T20:09:23.312Z,7.07
2023-02-22T20:11:52.949Z,3.63
2023-02-22T20:14:24.332Z,4.17
2023-02-22T20:16:54.972Z,6.83
2023-02-22T20:19:24.423Z,5.60
2023-02-22T20:21:56.011Z,4.53
2023-02-22T20:24:25.802Z,5.73
2023-02-22T20:26:55.921Z,5.20
2023-02-22T20:29:29.749Z,4.17
2023-02-22T20:31:59.817Z,5.23
2023-02-22T20:34:31.456Z,5.33
2023-02-22T20:37:02.416Z,6.50
2023-02-22T20:39:31.620Z,6.33
2023-02-22T20:42:03.101Z,4.27
2023-02-22T20:44:32.117Z,4.67
2023-02-22T20:47:00.644Z,6.10
2023-02-22T20:49:29.064Z,4.17
2023-02-22T20:51:57.396Z,6.13
2023-02-22T20:54:30.642Z,5.77
2023-02-22T20:56:59.269Z,5.63
2023-02-22T20:59:29.416Z,4.20
2023-02-22T21:01:57.938Z,8.83
2023-02-22T21:04:26.977Z,5.30
2023-02-22T21:06:59.297Z,6.53
2023-02-22T21:09:29.651Z,4.67
2023-02-22T21:12:01.819Z,4.10
2023-02-22T21:14:32.479Z,6.17
2023-02-22T21:17:03.928Z,5.60
2023-02-22T21:19:33.547Z,4.77
2023-02-22T21:22:08.538Z,4.43
2023-02-22T21:24:41.667Z,3.53
2023-02-22T21:27:12.387Z,3.60
2023-02-22T21:29:40.906Z,4.63
2023-02-22T21:32:09.736Z,4.37
2023-02-22T21:34:39.333Z,4.60
2023-02-22T21:37:08.582Z,5.37
2023-02-22T21:39:38.354Z,4.60
2023-02-22T21:42:07.463Z,4.47
2023-02-22T21:44:35.921Z,6.93
2023-02-22T21:47:04.340Z,6.10
2023-02-22T21:49:32.769Z,5.93
2023-02-22T21:52:01.173Z,6.10
2023-02-22T21:54:29.694Z,6.47
2023-02-22T21:57:01.358Z,4.63
2023-02-22T21:59:29.810Z,6.13
2023-02-22T22:01:58.254Z,5.70
2023-02-22T22:04:29.626Z,4.70
2023-02-22T22:07:00.167Z,9.70
2023-02-22T22:09:36.712Z,5.90
2023-02-22T22:12:10.177Z,4.63
2023-02-22T22:14:40.318Z,4.33
2023-02-22T22:17:14.733Z,6.10
2023-02-22T22:19:44.531Z,6.23
2023-02-22T22:22:13.447Z,5.07
2023-02-22T22:24:45.808Z,6.73
2023-02-22T22:27:16.610Z,5.37
2023-02-22T22:29:45.508Z,7.23
2023-02-22T22:32:14.046Z,6.60
2023-02-22T22:34:43.273Z,5.87
2023-02-22T22:37:11.612Z,7.13
2023-02-22T22:39:43.166Z,5.00
2023-02-22T22:42:11.830Z,5.57
2023-02-22T22:44:44.124Z,6.20
2023-02-22T22:47:13.760Z,6.47
2023-02-22T22:49:42.733Z,7.37
2023-02-22T22:52:14.092Z,5.60
2023-02-22T22:54:43.490Z,5.03
2023-02-22T22:57:12.750Z,6.73
2023-02-22T22:59:43.201Z,7.17
2023-02-22T23:02:12.092Z,5.57
2023-02-22T23:04:40.524Z,7.80
2023-02-22T23:07:08.965Z,5.63
2023-02-22T23:09:38.948Z,7.53
2023-02-22T23:12:09.731Z,4.67
2023-02-22T23:14:44.258Z,4.57
2023-02-22T23:17:16.292Z,5.27
2023-02-22T23:19:46.177Z,6.30
2023-02-22T23:22:15.490Z,4.47
2023-02-22T23:24:45.099Z,5.33
2023-02-22T23:27:13.538Z,5.37
2023-02-22T23:29:46.905Z,4.57
2023-02-22T23:32:15.631Z,6.03
2023-02-22T23:34:44.039Z,5.10
2023-02-22T23:37:14.154Z,5.83
2023-02-22T23:39:43.243Z,5.70
2023-02-22T23:42:11.647Z,5.80
2023-02-22T23:44:40.609Z,6.93
2023-02-22T23:47:10.788Z,5.17
2023-02-22T23:49:43.435Z,5.37
2023-02-22T23:52:23.905Z,5.37
2023-02-22T23:54:53.947Z,6.77
2023-02-22T23:57:22.444Z,4.70
2023-02-22T23:59:51.537Z,5.63
